Terminal Aerodrome Forecast
Issued by NWS

Home | Current Version | Previous Version | Text Only | Print | Product List | Glossary On
Versions: 1 2 3 4 5 6 7 8 9 10 11 12 13 14 15 16 17 18 19 20 21 22
599
FTUS43 KILX 231735
TAFDEC
TAF
KDEC 231735Z 2318/2418 30008KT P6SM VCSH BKN010
     FM231900 30010KT P6SM VCSH BKN030
     FM232000 29009KT P6SM SCT100
     FM240000 28008KT P6SM VCSH BKN070
     FM240300 29012KT 5SM -SHRA BR BKN050
     FM241100 28012G21KT 5SM -SHRA BR OVC030
     FM241700 28014G26KT P6SM OVC015=

USA.gov is the U.S. government's official web portal to all federal, state and local government web resources and services.